You are listening to:
ZLA Los Angeles Center (25/28) - Santa Barbara, California, United States

KSBA 260553Z 07004KT 10SM CLR 19/17 A2992 RMK AO2 SLP131 T01940167 10239 20194 50004 $

If stream doesn't start automatically press the play button
If stream stops then reload player then press play